Terminal Aerodrome Forecast
Issued by NWS

Home | Current Version | Previous Version | Graphics & Text | Print | Product List | Glossary On
Versions: 1 2 3 4 5 6 7 8 9 10 11 12 13 14 15 16 17 18 19 20
000
FTUS43 KMPX 050520
TAFAXN
TAF
KAXN 050520Z 0506/0606 18010KT P6SM SKC
     FM051200 18011KT P6SM SCT250
      TEMPO 0512/0516 6SM -TSRA BKN050CB
     FM051600 18015G23KT P6SM SCT250
     FM052200 17012G23KT 6SM -TSRA SCT050CB BKN150
     FM060000 VRB15G25KT 2SM TSRA BKN020CB
     FM060300 VRB20G30KT 1SM +TSRA BKN010CB=

USA.gov is the U.S. government's official web portal to all federal, state and local government web resources and services.